Time,TemperatureF,DewpointF,PressureIn,WindDirection,WindDirectionDegrees,WindSpeedMPH,WindSpeedGustMPH,Humidity,HourlyPrecipIn,Conditions,Clouds,dailyrainin,SoftwareType,DateUTC
2013-04-19 00:09:00,67.3,61.0,29.88,SE,142,7.0,17.0,81,0.00,,,0.00,weatherlink.com 1.10,2013-04-19 04:09:00,
2013-04-19 00:24:00,67.1,61.0,29.88,SSE,155,18.0,18.0,82,0.00,,,0.00,weatherlink.com 1.10,2013-04-19 04:24:00,
2013-04-19 00:39:00,66.7,62.0,29.88,SSE,168,8.0,21.0,84,0.00,,,0.00,weatherlink.com 1.10,2013-04-19 04:39:00,
2013-04-19 00:54:00,65.9,61.0,29.88,SE,143,8.0,21.0,85,0.00,,,0.00,weatherlink.com 1.10,2013-04-19 04:54:00,
2013-04-19 01:09:00,65.8,61.0,29.87,ESE,122,17.0,26.0,84,0.00,,,0.00,weatherlink.com 1.10,2013-04-19 05:09:00,
2013-04-19 01:24:00,65.6,61.0,29.87,SSE,154,16.0,25.0,84,0.00,,,0.00,weatherlink.com 1.10,2013-04-19 05:24:00,
2013-04-19 01:40:00,65.1,61.0,29.86,SSE,168,15.0,22.0,85,0.00,,,0.00,weatherlink.com 1.10,2013-04-19 05:40:00,
2013-04-19 01:55:00,65.0,61.0,29.85,SW,225,9.0,16.0,86,0.00,,,0.00,weatherlink.com 1.10,2013-04-19 05:55:00,
2013-04-19 02:10:00,64.9,61.0,29.84,South,186,8.0,18.0,86,0.00,,,0.00,weatherlink.com 1.10,2013-04-19 06:10:00,
2013-04-19 02:25:00,64.9,60.0,29.84,South,184,9.0,22.0,85,0.00,,,0.00,weatherlink.com 1.10,2013-04-19 06:25:00,
2013-04-19 02:40:00,64.7,60.0,29.82,SSE,149,11.0,16.0,85,0.00,,,0.00,weatherlink.com 1.10,2013-04-19 06:40:00,
2013-04-19 02:55:00,64.2,60.0,29.82,North,4,7.0,23.0,87,0.00,,,0.00,weatherlink.com 1.10,2013-04-19 06:55:00,
2013-04-19 03:25:00,64.3,60.0,29.81,SW,214,8.0,22.0,87,0.00,,,0.00,weatherlink.com 1.10,2013-04-19 07:25:00,
2013-04-19 03:40:00,64.4,60.0,29.81,SSE,156,13.0,21.0,86,0.00,,,0.00,weatherlink.com 1.10,2013-04-19 07:40:00,
2013-04-19 03:55:00,64.5,60.0,29.80,South,173,20.0,30.0,86,0.00,,,0.00,weatherlink.com 1.10,2013-04-19 07:55:00,
2013-04-19 04:10:00,64.7,60.0,29.80,South,190,19.0,28.0,85,0.00,,,0.00,weatherlink.com 1.10,2013-04-19 08:10:00,
2013-04-19 04:25:00,64.6,60.0,29.78,SSE,159,10.0,27.0,85,0.00,,,0.00,weatherlink.com 1.10,2013-04-19 08:25:00,
2013-04-19 04:40:00,64.9,60.0,29.77,SSE,160,19.0,25.0,84,0.00,,,0.00,weatherlink.com 1.10,2013-04-19 08:40:00,
2013-04-19 04:55:00,65.0,60.0,29.78,SE,139,16.0,23.0,84,0.00,,,0.00,weatherlink.com 1.10,2013-04-19 08:55:00,
2013-04-19 05:10:00,64.8,60.0,29.77,East,96,19.0,22.0,85,0.00,,,0.00,weatherlink.com 1.10,2013-04-19 09:10:00,
2013-04-19 05:25:00,64.7,60.0,29.77,SSE,150,16.0,23.0,85,0.00,,,0.00,weatherlink.com 1.10,2013-04-19 09:25:00,
2013-04-19 05:40:00,64.6,60.0,29.77,SSE,147,12.0,25.0,86,0.00,,,0.00,weatherlink.com 1.10,2013-04-19 09:40:00,
2013-04-19 05:55:00,64.4,60.0,29.76,SSE,168,16.0,22.0,86,0.00,,,0.00,weatherlink.com 1.10,2013-04-19 09:55:00,
2013-04-19 06:10:00,64.7,61.0,29.77,SSE,149,9.0,21.0,86,0.00,,,0.00,weatherlink.com 1.10,2013-04-19 10:10:00,
2013-04-19 06:25:00,64.5,61.0,29.77,SE,141,9.0,20.0,87,0.00,,,0.00,weatherlink.com 1.10,2013-04-19 10:25:00,
2013-04-19 06:40:00,64.5,61.0,29.78,SSE,162,14.0,21.0,87,0.00,,,0.00,weatherlink.com 1.10,2013-04-19 10:40:00,
2013-04-19 06:55:00,64.7,61.0,29.78,SSE,153,12.0,18.0,87,0.00,,,0.00,weatherlink.com 1.10,2013-04-19 10:55:00,
2013-04-19 07:10:00,64.9,61.0,29.78,SE,136,14.0,20.0,86,0.00,,,0.00,weatherlink.com 1.10,2013-04-19 11:10:00,
2013-04-19 07:25:00,65.1,61.0,29.78,SSE,150,17.0,21.0,85,0.00,,,0.00,weatherlink.com 1.10,2013-04-19 11:25:00,
2013-04-19 07:40:00,65.2,60.0,29.78,SSE,158,14.0,19.0,84,0.00,,,0.00,weatherlink.com 1.10,2013-04-19 11:40:00,
2013-04-19 07:55:00,65.4,61.0,29.79,SE,145,11.0,20.0,84,0.00,,,0.00,weatherlink.com 1.10,2013-04-19 11:55:00,
2013-04-19 08:10:00,65.3,60.0,29.79,SSE,150,11.0,22.0,84,0.00,,,0.00,weatherlink.com 1.10,2013-04-19 12:10:00,
2013-04-19 08:25:00,65.0,61.0,29.78,SSW,198,8.0,30.0,86,0.01,,,0.01,weatherlink.com 1.10,2013-04-19 12:25:00,
2013-04-19 08:40:00,65.1,61.0,29.77,South,181,11.0,28.0,85,0.01,,,0.01,weatherlink.com 1.10,2013-04-19 12:40:00,
2013-04-19 08:55:00,65.3,60.0,29.77,South,178,13.0,27.0,84,0.01,,,0.01,weatherlink.com 1.10,2013-04-19 12:55:00,
2013-04-19 09:10:00,65.1,60.0,29.77,SSE,155,25.0,32.0,84,0.01,,,0.01,weatherlink.com 1.10,2013-04-19 13:10:00,
2013-04-19 09:25:00,64.9,60.0,29.76,ESE,122,14.0,24.0,85,0.00,,,0.01,weatherlink.com 1.10,2013-04-19 13:25:00,
2013-04-19 09:40:00,65.3,60.0,29.75,SE,134,20.0,29.0,84,0.00,,,0.01,weatherlink.com 1.10,2013-04-19 13:40:00,
2013-04-19 09:55:00,65.2,61.0,29.76,South,169,16.0,26.0,85,0.00,,,0.01,weatherlink.com 1.10,2013-04-19 13:55:00,
2013-04-19 10:10:00,64.1,61.0,29.76,South,179,10.0,22.0,89,0.02,,,0.03,weatherlink.com 1.10,2013-04-19 14:10:00,
2013-04-19 10:25:00,64.0,61.0,29.74,ESE,114,9.0,20.0,90,0.02,,,0.03,weatherlink.com 1.10,2013-04-19 14:25:00,
2013-04-19 11:26:00,66.5,62.0,29.71,South,177,13.0,26.0,85,0.01,,,0.04,weatherlink.com 1.10,2013-04-19 15:26:00,
2013-04-19 11:41:00,67.1,62.0,29.71,SSE,160,15.0,32.0,84,0.00,,,0.04,weatherlink.com 1.10,2013-04-19 15:41:00,
2013-04-19 11:56:00,67.5,63.0,29.71,SSE,150,14.0,19.0,84,0.00,,,0.04,weatherlink.com 1.10,2013-04-19 15:56:00,
2013-04-19 12:11:00,67.4,62.0,29.70,SSE,158,13.0,21.0,84,0.00,,,0.04,weatherlink.com 1.10,2013-04-19 16:11:00,
2013-04-19 12:26:00,67.1,63.0,29.70,South,170,11.0,21.0,85,0.00,,,0.04,weatherlink.com 1.10,2013-04-19 16:26:00,
2013-04-19 12:41:00,66.7,62.0,29.70,SE,142,11.0,21.0,85,0.01,,,0.05,weatherlink.com 1.10,2013-04-19 16:41:00,
2013-04-19 12:56:00,65.7,62.0,29.69,SE,129,7.0,18.0,88,0.04,,,0.08,weatherlink.com 1.10,2013-04-19 16:56:00,
2013-04-19 13:11:00,64.7,62.0,29.70,SSE,159,10.0,15.0,91,0.13,,,0.17,weatherlink.com 1.10,2013-04-19 17:11:00,
2013-04-19 13:26:00,64.3,62.0,29.72,SSE,148,13.0,17.0,93,0.25,,,0.29,weatherlink.com 1.10,2013-04-19 17:26:00,
2013-04-19 13:41:00,64.2,62.0,29.73,NNE,18,1.0,8.0,93,0.30,,,0.35,weatherlink.com 1.10,2013-04-19 17:41:00,
2013-04-19 13:56:00,64.3,62.0,29.71,ENE,72,0.0,3.0,93,0.30,,,0.39,weatherlink.com 1.10,2013-04-19 17:56:00,
2013-04-19 14:11:00,64.5,63.0,29.74,SSE,166,4.0,6.0,94,0.23,,,0.40,weatherlink.com 1.10,2013-04-19 18:11:00,
2013-04-19 14:26:00,64.7,63.0,29.73,SSE,163,2.0,4.0,94,0.12,,,0.41,weatherlink.com 1.10,2013-04-19 18:26:00,
2013-04-19 14:41:00,61.4,59.0,29.74,North,354,13.0,15.0,91,0.07,,,0.42,weatherlink.com 1.10,2013-04-19 18:41:00,
2013-04-19 14:56:00,60.3,59.0,29.73,NW,309,6.0,7.0,94,0.04,,,0.43,weatherlink.com 1.10,2013-04-19 18:56:00,
2013-04-19 15:11:00,59.0,57.0,29.74,NNE,16,7.0,15.0,94,0.04,,,0.44,weatherlink.com 1.10,2013-04-19 19:11:00,
2013-04-19 15:26:00,57.2,56.0,29.72,ENE,70,7.0,15.0,94,0.10,,,0.51,weatherlink.com 1.10,2013-04-19 19:26:00,
2013-04-19 15:41:00,56.9,56.0,29.73,North,359,11.0,13.0,95,0.10,,,0.52,weatherlink.com 1.10,2013-04-19 19:41:00,
2013-04-19 15:56:00,55.9,54.0,29.74,North,8,8.0,13.0,93,0.09,,,0.52,weatherlink.com 1.10,2013-04-19 19:56:00,
2013-04-19 16:11:00,55.2,54.0,29.73,NW,323,11.0,14.0,94,0.08,,,0.52,weatherlink.com 1.10,2013-04-19 20:11:00,
2013-04-19 16:26:00,53.6,51.0,29.74,North,5,9.0,19.0,92,0.01,,,0.52,weatherlink.com 1.10,2013-04-19 20:26:00,
2013-04-19 16:41:00,52.3,50.0,29.76,North,11,14.0,20.0,92,0.00,,,0.52,weatherlink.com 1.10,2013-04-19 20:41:00,
2013-04-19 16:56:00,51.7,50.0,29.77,NNW,337,7.0,18.0,93,0.00,,,0.52,weatherlink.com 1.10,2013-04-19 20:56:00,
2013-04-19 17:11:00,50.9,49.0,29.77,North,352,10.0,21.0,92,0.00,,,0.52,weatherlink.com 1.10,2013-04-19 21:11:00,
2013-04-19 17:26:00,50.6,48.0,29.79,NNW,329,10.0,17.0,92,0.00,,,0.52,weatherlink.com 1.10,2013-04-19 21:26:00,
2013-04-19 17:41:00,50.4,48.0,29.80,North,354,10.0,15.0,92,0.00,,,0.52,weatherlink.com 1.10,2013-04-19 21:41:00,
2013-04-19 17:56:00,50.3,48.0,29.79,North,354,12.0,24.0,91,0.00,,,0.52,weatherlink.com 1.10,2013-04-19 21:56:00,
2013-04-19 18:11:00,50.1,47.0,29.79,NNW,344,14.0,20.0,90,0.00,,,0.52,weatherlink.com 1.10,2013-04-19 22:11:00,
2013-04-19 18:41:00,50.1,47.0,29.79,NNW,345,17.0,20.0,89,0.00,,,0.52,weatherlink.com 1.10,2013-04-19 22:41:00,
2013-04-19 18:57:00,49.9,47.0,29.78,NNW,337,13.0,22.0,89,0.00,,,0.52,weatherlink.com 1.10,2013-04-19 22:57:00,
2013-04-19 19:12:00,49.4,47.0,29.80,North,4,17.0,25.0,90,0.00,,,0.52,weatherlink.com 1.10,2013-04-19 23:12:00,
2013-04-19 19:27:00,49.4,46.0,29.82,NNW,347,18.0,25.0,89,0.00,,,0.52,weatherlink.com 1.10,2013-04-19 23:27:00,
2013-04-19 19:42:00,49.3,46.0,29.81,North,6,9.0,24.0,89,0.00,,,0.52,weatherlink.com 1.10,2013-04-19 23:42:00,
2013-04-19 19:57:00,49.3,46.0,29.82,North,11,8.0,21.0,89,0.00,,,0.52,weatherlink.com 1.10,2013-04-19 23:57:00,
2013-04-19 20:12:00,49.2,46.0,29.83,North,355,15.0,21.0,89,0.00,,,0.52,weatherlink.com 1.10,2013-04-20 00:12:00,
2013-04-19 20:27:00,49.0,46.0,29.84,NNE,24,12.0,17.0,89,0.00,,,0.52,weatherlink.com 1.10,2013-04-20 00:27:00,
2013-04-19 20:42:00,48.4,45.0,29.84,North,6,18.0,23.0,87,0.00,,,0.52,weatherlink.com 1.10,2013-04-20 00:42:00,
2013-04-19 20:57:00,47.8,44.0,29.86,NNE,18,13.0,19.0,86,0.00,,,0.52,weatherlink.com 1.10,2013-04-20 00:57:00,
2013-04-19 21:12:00,47.2,43.0,29.88,NNW,330,6.0,22.0,86,0.00,,,0.52,weatherlink.com 1.10,2013-04-20 01:12:00,
2013-04-19 21:27:00,46.8,43.0,29.89,North,355,9.0,20.0,86,0.00,,,0.52,weatherlink.com 1.10,2013-04-20 01:27:00,
2013-04-19 21:42:00,46.4,42.0,29.90,North,351,13.0,23.0,85,0.00,,,0.52,weatherlink.com 1.10,2013-04-20 01:42:00,
2013-04-19 21:57:00,46.1,42.0,29.91,NNE,30,4.0,19.0,84,0.00,,,0.52,weatherlink.com 1.10,2013-04-20 01:57:00,
2013-04-19 22:12:00,45.8,41.0,29.93,North,8,14.0,19.0,82,0.00,,,0.52,weatherlink.com 1.10,2013-04-20 02:12:00,
2013-04-19 22:27:00,45.6,39.0,29.94,North,4,13.0,18.0,78,0.00,,,0.52,weatherlink.com 1.10,2013-04-20 02:27:00,
2013-04-19 22:42:00,45.5,39.0,29.95,NNW,337,14.0,22.0,77,0.00,,,0.52,weatherlink.com 1.10,2013-04-20 02:42:00,
2013-04-19 22:57:00,45.6,37.0,29.96,North,356,9.0,19.0,73,0.00,,,0.52,weatherlink.com 1.10,2013-04-20 02:57:00,
2013-04-19 23:12:00,45.3,37.0,29.96,NNE,15,10.0,20.0,72,0.00,,,0.52,weatherlink.com 1.10,2013-04-20 03:12:00,
2013-04-19 23:27:00,44.8,37.0,29.97,NNE,25,11.0,17.0,74,0.00,,,0.52,weatherlink.com 1.10,2013-04-20 03:27:00,
2013-04-19 23:42:00,44.2,37.0,29.97,North,358,16.0,19.0,75,0.00,,,0.52,weatherlink.com 1.10,2013-04-20 03:42:00,
2013-04-19 23:57:00,44.1,37.0,29.98,NNE,25,11.0,17.0,75,0.00,,,0.52,weatherlink.com 1.10,2013-04-20 03:57:00,